sensor_id;sensor_type;location;lat;lon;timestamp;pressure;altitude;pressure_sealevel;temperature;humidity
46886;BME280;32622;48.202;11.326;2024-02-23T00:01:34;999.79;;;4.43;43.74
46886;BME280;32622;48.202;11.326;2024-02-23T00:03:36;999.52;;;5.37;42.73
46886;BME280;32622;48.202;11.326;2024-02-23T00:05:38;999.50;;;5.22;41.59
46886;BME280;32622;48.202;11.326;2024-02-23T00:07:40;999.76;;;4.82;43.10
46886;BME280;32622;48.202;11.326;2024-02-23T00:09:43;999.78;;;4.36;43.93
46886;BME280;32622;48.202;11.326;2024-02-23T00:11:45;1000.21;;;3.51;45.52
46886;BME280;32622;48.202;11.326;2024-02-23T00:13:47;1000.00;;;4.41;44.11
46886;BME280;32622;48.202;11.326;2024-02-23T00:15:49;1000.10;;;4.12;43.46
46886;BME280;32622;48.202;11.326;2024-02-23T00:17:51;1000.07;;;4.31;43.08
46886;BME280;32622;48.202;11.326;2024-02-23T00:19:53;1000.26;;;3.98;43.83
46886;BME280;32622;48.202;11.326;2024-02-23T00:21:55;1000.06;;;4.52;42.71
46886;BME280;32622;48.202;11.326;2024-02-23T00:23:57;1000.19;;;4.09;42.91
46886;BME280;32622;48.202;11.326;2024-02-23T00:25:59;1000.26;;;3.90;43.95
46886;BME280;32622;48.202;11.326;2024-02-23T00:28:02;1000.15;;;4.31;43.36
46886;BME280;32622;48.202;11.326;2024-02-23T00:30:05;1000.29;;;3.91;43.35
46886;BME280;32622;48.202;11.326;2024-02-23T00:32:07;1000.12;;;4.31;42.94
46886;BME280;32622;48.202;11.326;2024-02-23T00:34:09;1000.38;;;3.69;43.33
46886;BME280;32622;48.202;11.326;2024-02-23T00:36:12;1000.40;;;3.59;43.19
46886;BME280;32622;48.202;11.326;2024-02-23T00:38:14;1000.39;;;3.52;42.94
46886;BME280;32622;48.202;11.326;2024-02-23T00:40:16;1000.19;;;4.36;42.41
46886;BME280;32622;48.202;11.326;2024-02-23T00:42:18;1000.07;;;4.55;42.09
46886;BME280;32622;48.202;11.326;2024-02-23T00:44:20;1000.35;;;3.74;42.77
46886;BME280;32622;48.202;11.326;2024-02-23T00:46:23;1000.29;;;3.38;43.41
46886;BME280;32622;48.202;11.326;2024-02-23T00:48:25;1000.38;;;3.54;42.86
46886;BME280;32622;48.202;11.326;2024-02-23T00:50:27;1000.34;;;3.62;42.65
46886;BME280;32622;48.202;11.326;2024-02-23T00:52:29;1000.41;;;3.20;43.94
46886;BME280;32622;48.202;11.326;2024-02-23T00:54:31;1000.59;;;3.15;43.14
46886;BME280;32622;48.202;11.326;2024-02-23T00:56:33;1000.68;;;2.83;43.78
46886;BME280;32622;48.202;11.326;2024-02-23T00:58:36;1000.60;;;3.45;42.68
46886;BME280;32622;48.202;11.326;2024-02-23T01:00:38;1000.62;;;3.32;42.83
46886;BME280;32622;48.202;11.326;2024-02-23T01:02:40;1000.82;;;2.78;43.85
46886;BME280;32622;48.202;11.326;2024-02-23T01:04:42;1000.91;;;2.85;44.19
46886;BME280;32622;48.202;11.326;2024-02-23T01:06:44;1000.81;;;3.26;42.33
46886;BME280;32622;48.202;11.326;2024-02-23T01:08:46;1000.97;;;2.85;43.23
46886;BME280;32622;48.202;11.326;2024-02-23T01:10:48;1000.87;;;3.17;43.19
46886;BME280;32622;48.202;11.326;2024-02-23T01:12:50;1000.91;;;3.23;42.86
46886;BME280;32622;48.202;11.326;2024-02-23T01:14:53;1001.02;;;2.99;43.44
46886;BME280;32622;48.202;11.326;2024-02-23T01:16:55;1001.01;;;3.37;41.91
46886;BME280;32622;48.202;11.326;2024-02-23T01:18:57;1000.77;;;4.30;41.39
46886;BME280;32622;48.202;11.326;2024-02-23T01:20:59;1000.96;;;3.35;42.24
46886;BME280;32622;48.202;11.326;2024-02-23T01:23:02;1001.08;;;3.24;42.60
46886;BME280;32622;48.202;11.326;2024-02-23T01:25:05;1001.04;;;3.60;41.81
46886;BME280;32622;48.202;11.326;2024-02-23T01:27:07;1001.21;;;3.26;42.52
46886;BME280;32622;48.202;11.326;2024-02-23T01:29:09;1001.25;;;2.87;43.64
46886;BME280;32622;48.202;11.326;2024-02-23T01:31:11;1001.24;;;2.70;43.51
46886;BME280;32622;48.202;11.326;2024-02-23T01:33:14;1001.14;;;3.38;43.28
46886;BME280;32622;48.202;11.326;2024-02-23T01:35:16;1001.34;;;2.75;43.34
46886;BME280;32622;48.202;11.326;2024-02-23T01:37:18;1000.91;;;3.71;42.23
46886;BME280;32622;48.202;11.326;2024-02-23T01:39:20;1001.21;;;3.24;42.71
46886;BME280;32622;48.202;11.326;2024-02-23T01:41:22;1000.98;;;4.06;41.73
46886;BME280;32622;48.202;11.326;2024-02-23T01:43:24;1001.25;;;3.20;42.27
46886;BME280;32622;48.202;11.326;2024-02-23T01:45:27;1001.16;;;3.67;41.56
46886;BME280;32622;48.202;11.326;2024-02-23T01:47:29;1001.30;;;3.49;41.06
46886;BME280;32622;48.202;11.326;2024-02-23T01:49:33;1001.16;;;4.01;40.01
46886;BME280;32622;48.202;11.326;2024-02-23T01:51:35;1001.27;;;4.37;39.62
46886;BME280;32622;48.202;11.326;2024-02-23T01:53:38;1001.21;;;4.24;39.47
46886;BME280;32622;48.202;11.326;2024-02-23T01:55:41;1001.35;;;3.48;40.62
46886;BME280;32622;48.202;11.326;2024-02-23T01:57:43;1001.43;;;3.31;41.56
46886;BME280;32622;48.202;11.326;2024-02-23T01:59:47;1001.52;;;3.23;41.61
46886;BME280;32622;48.202;11.326;2024-02-23T02:01:49;1001.77;;;2.06;43.21
46886;BME280;32622;48.202;11.326;2024-02-23T02:03:52;1001.37;;;3.68;40.73
46886;BME280;32622;48.202;11.326;2024-02-23T02:05:55;1001.33;;;4.03;39.97
46886;BME280;32622;48.202;11.326;2024-02-23T02:07:57;1001.24;;;4.16;39.39
46886;BME280;32622;48.202;11.326;2024-02-23T02:10:00;1001.31;;;4.04;39.39
46886;BME280;32622;48.202;11.326;2024-02-23T02:12:02;1001.17;;;4.74;38.82
46886;BME280;32622;48.202;11.326;2024-02-23T02:14:04;1001.20;;;4.62;38.96
46886;BME280;32622;48.202;11.326;2024-02-23T02:16:06;1001.34;;;4.52;39.27
46886;BME280;32622;48.202;11.326;2024-02-23T02:18:09;1001.47;;;3.98;39.84
46886;BME280;32622;48.202;11.326;2024-02-23T02:20:12;1001.52;;;3.89;40.26
46886;BME280;32622;48.202;11.326;2024-02-23T02:22:14;1001.37;;;4.44;39.37
46886;BME280;32622;48.202;11.326;2024-02-23T02:24:17;1001.50;;;3.73;39.68
46886;BME280;32622;48.202;11.326;2024-02-23T02:26:19;1001.36;;;4.24;39.03
46886;BME280;32622;48.202;11.326;2024-02-23T02:28:21;1001.26;;;4.70;39.22
46886;BME280;32622;48.202;11.326;2024-02-23T02:30:23;1001.44;;;4.32;39.31
46886;BME280;32622;48.202;11.326;2024-02-23T02:32:25;1001.44;;;4.46;39.01
46886;BME280;32622;48.202;11.326;2024-02-23T02:34:28;1001.62;;;3.55;40.16
46886;BME280;32622;48.202;11.326;2024-02-23T02:36:30;1001.63;;;3.47;40.50
46886;BME280;32622;48.202;11.326;2024-02-23T02:38:32;1001.63;;;3.76;40.04
46886;BME280;32622;48.202;11.326;2024-02-23T02:40:35;1001.58;;;3.75;39.54
46886;BME280;32622;48.202;11.326;2024-02-23T02:42:37;1001.44;;;4.36;39.11
46886;BME280;32622;48.202;11.326;2024-02-23T02:44:39;1001.35;;;4.86;38.95
46886;BME280;32622;48.202;11.326;2024-02-23T02:46:41;1001.48;;;4.33;38.39
46886;BME280;32622;48.202;11.326;2024-02-23T02:48:43;1001.39;;;4.55;38.42
46886;BME280;32622;48.202;11.326;2024-02-23T02:50:45;1001.43;;;4.56;38.16
46886;BME280;32622;48.202;11.326;2024-02-23T02:52:48;1001.54;;;4.03;39.03
46886;BME280;32622;48.202;11.326;2024-02-23T02:54:50;1001.69;;;3.64;39.97
46886;BME280;32622;48.202;11.326;2024-02-23T02:56:52;1001.67;;;3.86;39.15
46886;BME280;32622;48.202;11.326;2024-02-23T02:58:55;1001.76;;;3.79;39.60
46886;BME280;32622;48.202;11.326;2024-02-23T03:00:57;1001.76;;;3.83;39.59
46886;BME280;32622;48.202;11.326;2024-02-23T03:02:59;1001.67;;;3.99;40.23
46886;BME280;32622;48.202;11.326;2024-02-23T03:05:01;1001.73;;;3.98;39.68
46886;BME280;32622;48.202;11.326;2024-02-23T03:07:04;1001.54;;;4.56;38.88
46886;BME280;32622;48.202;11.326;2024-02-23T03:09:06;1001.50;;;4.78;38.24
46886;BME280;32622;48.202;11.326;2024-02-23T03:11:08;1001.43;;;4.79;38.32
46886;BME280;32622;48.202;11.326;2024-02-23T03:13:10;1001.49;;;4.56;38.25
46886;BME280;32622;48.202;11.326;2024-02-23T03:15:13;1001.52;;;4.47;38.41
46886;BME280;32622;48.202;11.326;2024-02-23T03:17:15;1001.68;;;4.05;38.46
46886;BME280;32622;48.202;11.326;2024-02-23T03:19:17;1001.75;;;3.80;38.93
46886;BME280;32622;48.202;11.326;2024-02-23T03:21:19;1001.71;;;4.03;38.75
46886;BME280;32622;48.202;11.326;2024-02-23T03:23:21;1001.70;;;4.56;38.81
46886;BME280;32622;48.202;11.326;2024-02-23T03:25:23;1001.85;;;3.92;40.22
46886;BME280;32622;48.202;11.326;2024-02-23T03:27:28;1001.87;;;4.42;40.11
46886;BME280;32622;48.202;11.326;2024-02-23T03:29:31;1001.88;;;4.42;40.42
46886;BME280;32622;48.202;11.326;2024-02-23T03:31:33;1001.89;;;4.59;40.15
46886;BME280;32622;48.202;11.326;2024-02-23T03:33:35;1002.02;;;3.98;40.31
46886;BME280;32622;48.202;11.326;2024-02-23T03:35:37;1001.80;;;4.77;39.86
46886;BME280;32622;48.202;11.326;2024-02-23T03:37:39;1001.82;;;5.25;39.34
46886;BME280;32622;48.202;11.326;2024-02-23T03:39:41;1001.75;;;5.49;38.67
46886;BME280;32622;48.202;11.326;2024-02-23T03:41:43;1001.72;;;5.50;38.63
46886;BME280;32622;48.202;11.326;2024-02-23T03:43:45;1001.82;;;5.09;38.56
46886;BME280;32622;48.202;11.326;2024-02-23T03:45:47;1001.82;;;5.20;38.67
46886;BME280;32622;48.202;11.326;2024-02-23T03:47:50;1001.86;;;5.00;38.78
46886;BME280;32622;48.202;11.326;2024-02-23T03:49:52;1001.79;;;5.30;38.97
46886;BME280;32622;48.202;11.326;2024-02-23T03:51:54;1001.76;;;4.99;38.38
46886;BME280;32622;48.202;11.326;2024-02-23T03:53:56;1001.54;;;5.84;37.36
46886;BME280;32622;48.202;11.326;2024-02-23T03:55:58;1001.61;;;5.47;37.38
46886;BME280;32622;48.202;11.326;2024-02-23T03:58:00;1001.59;;;5.80;37.19
46886;BME280;32622;48.202;11.326;2024-02-23T04:00:03;1001.71;;;5.32;37.88
46886;BME280;32622;48.202;11.326;2024-02-23T04:02:05;1001.56;;;5.75;37.83
46886;BME280;32622;48.202;11.326;2024-02-23T04:04:07;1001.75;;;4.93;37.44
46886;BME280;32622;48.202;11.326;2024-02-23T04:06:10;1001.63;;;5.50;37.48
46886;BME280;32622;48.202;11.326;2024-02-23T04:08:12;1001.62;;;5.54;37.22
46886;BME280;32622;48.202;11.326;2024-02-23T04:10:14;1001.61;;;5.63;36.64
46886;BME280;32622;48.202;11.326;2024-02-23T04:12:16;1001.57;;;5.83;36.42
46886;BME280;32622;48.202;11.326;2024-02-23T04:14:19;1001.53;;;6.14;36.94
46886;BME280;32622;48.202;11.326;2024-02-23T04:16:23;1001.53;;;6.15;36.40
46886;BME280;32622;48.202;11.326;2024-02-23T04:18:25;1001.58;;;6.00;36.41
46886;BME280;32622;48.202;11.326;2024-02-23T04:20:27;1001.52;;;6.13;36.14
46886;BME280;32622;48.202;11.326;2024-02-23T04:22:29;1001.51;;;6.12;36.12
46886;BME280;32622;48.202;11.326;2024-02-23T04:24:31;1001.35;;;6.40;35.79
46886;BME280;32622;48.202;11.326;2024-02-23T04:26:33;1001.62;;;5.48;37.63
46886;BME280;32622;48.202;11.326;2024-02-23T04:28:39;1001.59;;;5.64;37.12
46886;BME280;32622;48.202;11.326;2024-02-23T04:30:41;1001.67;;;5.19;37.09
46886;BME280;32622;48.202;11.326;2024-02-23T04:32:43;1001.78;;;4.91;36.74
46886;BME280;32622;48.202;11.326;2024-02-23T04:34:45;1001.63;;;5.45;36.87
46886;BME280;32622;48.202;11.326;2024-02-23T04:36:47;1001.87;;;4.42;36.54
46886;BME280;32622;48.202;11.326;2024-02-23T04:38:49;1001.87;;;4.24;37.19
46886;BME280;32622;48.202;11.326;2024-02-23T04:40:51;1002.04;;;3.30;39.04
46886;BME280;32622;48.202;11.326;2024-02-23T04:42:54;1001.90;;;3.83;38.79
46886;BME280;32622;48.202;11.326;2024-02-23T04:44:56;1001.88;;;3.89;37.97
46886;BME280;32622;48.202;11.326;2024-02-23T04:46:58;1001.73;;;4.64;37.32
46886;BME280;32622;48.202;11.326;2024-02-23T04:49:00;1001.91;;;4.00;38.15
46886;BME280;32622;48.202;11.326;2024-02-23T04:51:02;1001.89;;;4.38;37.59
46886;BME280;32622;48.202;11.326;2024-02-23T04:53:05;1001.91;;;4.36;37.52
46886;BME280;32622;48.202;11.326;2024-02-23T04:55:07;1001.93;;;4.24;37.59
46886;BME280;32622;48.202;11.326;2024-02-23T04:57:10;1001.72;;;4.75;36.97
46886;BME280;32622;48.202;11.326;2024-02-23T04:59:12;1001.62;;;4.97;36.77
46886;BME280;32622;48.202;11.326;2024-02-23T05:01:14;1001.48;;;5.35;36.69
46886;BME280;32622;48.202;11.326;2024-02-23T05:03:16;1001.47;;;4.92;36.55
46886;BME280;32622;48.202;11.326;2024-02-23T05:05:18;1001.29;;;5.01;36.28
46886;BME280;32622;48.202;11.326;2024-02-23T05:07:20;1001.23;;;5.35;36.44
46886;BME280;32622;48.202;11.326;2024-02-23T05:09:22;1001.28;;;5.32;36.39
46886;BME280;32622;48.202;11.326;2024-02-23T05:11:24;1001.33;;;5.42;36.46
46886;BME280;32622;48.202;11.326;2024-02-23T05:13:26;1001.24;;;5.73;35.86
46886;BME280;32622;48.202;11.326;2024-02-23T05:15:29;1001.35;;;5.74;36.13
46886;BME280;32622;48.202;11.326;2024-02-23T05:17:31;1001.38;;;5.64;35.78
46886;BME280;32622;48.202;11.326;2024-02-23T05:19:33;1001.33;;;6.03;35.83
46886;BME280;32622;48.202;11.326;2024-02-23T05:21:35;1001.52;;;5.44;35.93
46886;BME280;32622;48.202;11.326;2024-02-23T05:23:37;1001.55;;;5.51;35.61
46886;BME280;32622;48.202;11.326;2024-02-23T05:25:39;1001.54;;;5.67;35.63
46886;BME280;32622;48.202;11.326;2024-02-23T05:27:41;1001.46;;;5.90;35.23
46886;BME280;32622;48.202;11.326;2024-02-23T05:29:43;1001.41;;;5.83;34.90
46886;BME280;32622;48.202;11.326;2024-02-23T05:31:49;1001.44;;;6.04;35.42
46886;BME280;32622;48.202;11.326;2024-02-23T05:33:51;1001.33;;;6.47;35.26
46886;BME280;32622;48.202;11.326;2024-02-23T05:35:53;1001.51;;;5.83;35.50
46886;BME280;32622;48.202;11.326;2024-02-23T05:37:55;1001.61;;;5.66;35.45
46886;BME280;32622;48.202;11.326;2024-02-23T05:39:57;1001.57;;;5.98;35.17
46886;BME280;32622;48.202;11.326;2024-02-23T05:41:59;1001.60;;;5.80;35.22
46886;BME280;32622;48.202;11.326;2024-02-23T05:44:02;1001.52;;;6.09;35.68
46886;BME280;32622;48.202;11.326;2024-02-23T05:46:04;1001.57;;;5.86;35.30
46886;BME280;32622;48.202;11.326;2024-02-23T05:48:07;1001.59;;;5.88;35.35
46886;BME280;32622;48.202;11.326;2024-02-23T05:50:09;1001.66;;;5.54;35.68
46886;BME280;32622;48.202;11.326;2024-02-23T05:52:12;1001.71;;;5.55;35.72
46886;BME280;32622;48.202;11.326;2024-02-23T05:54:14;1001.77;;;5.86;35.66
46886;BME280;32622;48.202;11.326;2024-02-23T05:56:16;1001.79;;;5.78;35.53
46886;BME280;32622;48.202;11.326;2024-02-23T05:58:18;1001.95;;;5.21;35.56
46886;BME280;32622;48.202;11.326;2024-02-23T06:00:20;1001.86;;;5.79;35.78
46886;BME280;32622;48.202;11.326;2024-02-23T06:02:23;1001.93;;;5.77;35.62
46886;BME280;32622;48.202;11.326;2024-02-23T06:04:25;1001.92;;;5.92;35.55
46886;BME280;32622;48.202;11.326;2024-02-23T06:06:28;1001.98;;;5.66;35.19
46886;BME280;32622;48.202;11.326;2024-02-23T06:08:30;1001.97;;;5.92;35.42
46886;BME280;32622;48.202;11.326;2024-02-23T06:10:32;1002.16;;;5.20;35.40
46886;BME280;32622;48.202;11.326;2024-02-23T06:12:34;1002.04;;;5.71;35.38
46886;BME280;32622;48.202;11.326;2024-02-23T06:14:36;1002.03;;;5.42;35.44
46886;BME280;32622;48.202;11.326;2024-02-23T06:16:38;1001.93;;;5.68;35.70
46886;BME280;32622;48.202;11.326;2024-02-23T06:18:40;1002.14;;;5.03;35.78
46886;BME280;32622;48.202;11.326;2024-02-23T06:20:43;1001.90;;;6.01;34.86
46886;BME280;32622;48.202;11.326;2024-02-23T06:22:45;1002.01;;;5.77;35.06
46886;BME280;32622;48.202;11.326;2024-02-23T06:24:47;1002.17;;;5.23;35.27
46886;BME280;32622;48.202;11.326;2024-02-23T06:26:49;1002.02;;;6.01;34.53
46886;BME280;32622;48.202;11.326;2024-02-23T06:28:51;1002.12;;;5.53;34.49
46886;BME280;32622;48.202;11.326;2024-02-23T06:30:53;1002.04;;;5.81;34.09
46886;BME280;32622;48.202;11.326;2024-02-23T06:32:55;1002.14;;;5.50;34.51
46886;BME280;32622;48.202;11.326;2024-02-23T06:34:58;1002.18;;;5.17;34.55
46886;BME280;32622;48.202;11.326;2024-02-23T06:37:00;1002.10;;;5.28;34.64
46886;BME280;32622;48.202;11.326;2024-02-23T06:39:02;1001.85;;;6.23;34.08
46886;BME280;32622;48.202;11.326;2024-02-23T06:41:04;1001.98;;;5.83;34.42
46886;BME280;32622;48.202;11.326;2024-02-23T06:43:06;1001.94;;;6.02;33.94
46886;BME280;32622;48.202;11.326;2024-02-23T06:45:09;1002.02;;;5.65;34.12
46886;BME280;32622;48.202;11.326;2024-02-23T06:47:11;1001.85;;;6.32;33.67
46886;BME280;32622;48.202;11.326;2024-02-23T06:49:13;1002.03;;;5.50;33.77
46886;BME280;32622;48.202;11.326;2024-02-23T06:51:16;1001.97;;;5.84;34.25
46886;BME280;32622;48.202;11.326;2024-02-23T06:53:18;1002.02;;;5.63;34.37
46886;BME280;32622;48.202;11.326;2024-02-23T06:55:20;1002.01;;;5.83;33.82
46886;BME280;32622;48.202;11.326;2024-02-23T06:57:22;1002.02;;;5.81;34.14
46886;BME280;32622;48.202;11.326;2024-02-23T06:59:24;1002.11;;;5.41;34.17
46886;BME280;32622;48.202;11.326;2024-02-23T07:01:26;1002.13;;;5.66;33.93
46886;BME280;32622;48.202;11.326;2024-02-23T07:03:28;1002.15;;;5.74;34.23
46886;BME280;32622;48.202;11.326;2024-02-23T07:05:31;1002.14;;;5.78;34.10
46886;BME280;32622;48.202;11.326;2024-02-23T07:07:34;1002.11;;;6.25;33.66
46886;BME280;32622;48.202;11.326;2024-02-23T07:09:36;1002.22;;;6.08;33.68
46886;BME280;32622;48.202;11.326;2024-02-23T07:11:38;1002.32;;;5.72;33.44
46886;BME280;32622;48.202;11.326;2024-02-23T07:13:43;1002.19;;;6.55;33.09
46886;BME280;32622;48.202;11.326;2024-02-23T07:15:45;1002.26;;;6.32;33.07
46886;BME280;32622;48.202;11.326;2024-02-23T07:17:47;1002.24;;;6.29;33.16
46886;BME280;32622;48.202;11.326;2024-02-23T07:19:49;1002.30;;;6.09;33.04
46886;BME280;32622;48.202;11.326;2024-02-23T07:21:51;1002.29;;;6.36;32.53
46886;BME280;32622;48.202;11.326;2024-02-23T07:23:53;1002.35;;;6.20;32.53
46886;BME280;32622;48.202;11.326;2024-02-23T07:25:56;1002.34;;;6.37;32.73
46886;BME280;32622;48.202;11.326;2024-02-23T07:27:58;1002.40;;;6.27;32.99
46886;BME280;32622;48.202;11.326;2024-02-23T07:30:00;1002.30;;;6.47;32.79
46886;BME280;32622;48.202;11.326;2024-02-23T07:32:02;1002.29;;;6.46;32.43
46886;BME280;32622;48.202;11.326;2024-02-23T07:34:04;1002.32;;;6.26;33.03
46886;BME280;32622;48.202;11.326;2024-02-23T07:36:07;1002.35;;;6.22;32.95
46886;BME280;32622;48.202;11.326;2024-02-23T07:38:09;1002.38;;;6.36;32.91
46886;BME280;32622;48.202;11.326;2024-02-23T07:40:12;1002.39;;;6.39;32.59
46886;BME280;32622;48.202;11.326;2024-02-23T07:42:14;1002.39;;;6.46;32.66
46886;BME280;32622;48.202;11.326;2024-02-23T07:44:16;1002.39;;;6.48;32.18
46886;BME280;32622;48.202;11.326;2024-02-23T07:46:18;1002.42;;;6.34;32.04
46886;BME280;32622;48.202;11.326;2024-02-23T07:48:20;1002.37;;;6.45;32.29
46886;BME280;32622;48.202;11.326;2024-02-23T07:50:22;1002.41;;;5.99;32.60
46886;BME280;32622;48.202;11.326;2024-02-23T07:52:24;1002.31;;;6.43;31.65
46886;BME280;32622;48.202;11.326;2024-02-23T07:54:26;1002.32;;;6.38;31.85
46886;BME280;32622;48.202;11.326;2024-02-23T07:56:29;1002.32;;;6.41;32.19
46886;BME280;32622;48.202;11.326;2024-02-23T07:58:31;1002.25;;;6.63;31.96
46886;BME280;32622;48.202;11.326;2024-02-23T08:00:33;1002.34;;;6.11;32.14
46886;BME280;32622;48.202;11.326;2024-02-23T08:02:35;1002.14;;;6.76;31.81
46886;BME280;32622;48.202;11.326;2024-02-23T08:04:37;1002.05;;;6.79;31.74
46886;BME280;32622;48.202;11.326;2024-02-23T08:06:39;1002.04;;;6.45;31.70
46886;BME280;32622;48.202;11.326;2024-02-23T08:08:41;1001.99;;;6.26;31.95
46886;BME280;32622;48.202;11.326;2024-02-23T08:10:43;1001.77;;;6.73;31.56
46886;BME280;32622;48.202;11.326;2024-02-23T08:12:46;1001.78;;;6.53;31.88
46886;BME280;32622;48.202;11.326;2024-02-23T08:14:48;1001.96;;;6.26;31.95
46886;BME280;32622;48.202;11.326;2024-02-23T08:16:50;1001.98;;;6.69;31.49
46886;BME280;32622;48.202;11.326;2024-02-23T08:18:52;1002.09;;;6.29;31.69
46886;BME280;32622;48.202;11.326;2024-02-23T08:20:54;1002.03;;;6.96;31.33
46886;BME280;32622;48.202;11.326;2024-02-23T08:22:56;1002.03;;;7.03;31.17
46886;BME280;32622;48.202;11.326;2024-02-23T08:24:58;1001.97;;;6.94;31.50
46886;BME280;32622;48.202;11.326;2024-02-23T08:27:00;1001.95;;;6.60;32.01
46886;BME280;32622;48.202;11.326;2024-02-23T08:29:03;1001.88;;;6.97;31.71
46886;BME280;32622;48.202;11.326;2024-02-23T08:31:05;1001.90;;;6.89;31.04
46886;BME280;32622;48.202;11.326;2024-02-23T08:33:07;1001.91;;;6.94;31.46
46886;BME280;32622;48.202;11.326;2024-02-23T08:35:09;1001.99;;;6.84;30.98
46886;BME280;32622;48.202;11.326;2024-02-23T08:37:12;1002.08;;;6.83;31.20
46886;BME280;32622;48.202;11.326;2024-02-23T08:39:14;1002.00;;;7.38;30.98
46886;BME280;32622;48.202;11.326;2024-02-23T08:41:16;1002.10;;;7.39;31.01
46886;BME280;32622;48.202;11.326;2024-02-23T08:43:18;1002.37;;;6.50;30.69
46886;BME280;32622;48.202;11.326;2024-02-23T08:45:20;1002.19;;;7.00;30.38
46886;BME280;32622;48.202;11.326;2024-02-23T08:47:22;1002.30;;;6.44;31.03
46886;BME280;32622;48.202;11.326;2024-02-23T08:49:25;1002.28;;;6.58;30.67
46886;BME280;32622;48.202;11.326;2024-02-23T08:51:27;1002.32;;;6.58;30.95
46886;BME280;32622;48.202;11.326;2024-02-23T08:53:29;1002.30;;;6.74;30.69
46886;BME280;32622;48.202;11.326;2024-02-23T08:55:31;1002.40;;;6.49;30.68
46886;BME280;32622;48.202;11.326;2024-02-23T08:57:33;1002.44;;;6.81;30.76
46886;BME280;32622;48.202;11.326;2024-02-23T08:59:35;1002.63;;;6.57;31.67
46886;BME280;32622;48.202;11.326;2024-02-23T09:01:37;1002.74;;;6.34;30.93
46886;BME280;32622;48.202;11.326;2024-02-23T09:03:39;1002.69;;;6.44;30.81
46886;BME280;32622;48.202;11.326;2024-02-23T09:05:41;1002.75;;;6.18;31.13
46886;BME280;32622;48.202;11.326;2024-02-23T09:07:44;1002.70;;;6.39;30.46
46886;BME280;32622;48.202;11.326;2024-02-23T09:09:46;1002.97;;;5.44;31.71
46886;BME280;32622;48.202;11.326;2024-02-23T09:11:49;1003.02;;;5.35;31.44
46886;BME280;32622;48.202;11.326;2024-02-23T09:13:51;1002.97;;;5.93;31.48
46886;BME280;32622;48.202;11.326;2024-02-23T09:15:53;1002.98;;;5.95;31.24
46886;BME280;32622;48.202;11.326;2024-02-23T09:17:56;1003.11;;;5.57;31.08
46886;BME280;32622;48.202;11.326;2024-02-23T09:19:58;1003.09;;;5.87;31.36
46886;BME280;32622;48.202;11.326;2024-02-23T09:22:00;1002.90;;;6.54;30.96
46886;BME280;32622;48.202;11.326;2024-02-23T09:24:02;1002.96;;;6.29;31.07
46886;BME280;32622;48.202;11.326;2024-02-23T09:26:09;1003.08;;;5.72;30.80
46886;BME280;32622;48.202;11.326;2024-02-23T09:28:11;1003.05;;;5.85;31.07
46886;BME280;32622;48.202;11.326;2024-02-23T09:30:14;1003.10;;;5.63;30.97
46886;BME280;32622;48.202;11.326;2024-02-23T09:32:16;1003.12;;;5.48;31.47
46886;BME280;32622;48.202;11.326;2024-02-23T09:34:18;1003.11;;;5.65;31.68
46886;BME280;32622;48.202;11.326;2024-02-23T09:36:21;1003.14;;;5.53;31.28
46886;BME280;32622;48.202;11.326;2024-02-23T09:38:23;1003.06;;;5.79;30.84
46886;BME280;32622;48.202;11.326;2024-02-23T09:40:25;1002.97;;;5.95;30.57
46886;BME280;32622;48.202;11.326;2024-02-23T09:42:28;1003.04;;;5.87;30.82
46886;BME280;32622;48.202;11.326;2024-02-23T09:44:32;1003.06;;;5.85;31.08
46886;BME280;32622;48.202;11.326;2024-02-23T09:46:35;1003.15;;;5.74;31.32
46886;BME280;32622;48.202;11.326;2024-02-23T09:48:38;1003.16;;;5.59;31.70
46886;BME280;32622;48.202;11.326;2024-02-23T09:50:41;1003.05;;;5.92;31.56
46886;BME280;32622;48.202;11.326;2024-02-23T09:52:46;1003.01;;;6.02;31.19
46886;BME280;32622;48.202;11.326;2024-02-23T09:54:49;1002.81;;;6.64;30.70
46886;BME280;32622;48.202;11.326;2024-02-23T09:56:52;1002.89;;;6.21;30.86
46886;BME280;32622;48.202;11.326;2024-02-23T09:58:56;1002.82;;;6.28;31.10
46886;BME280;32622;48.202;11.326;2024-02-23T10:00:59;1002.74;;;6.53;31.30
46886;BME280;32622;48.202;11.326;2024-02-23T10:03:04;1002.76;;;6.44;30.38
46886;BME280;32622;48.202;11.326;2024-02-23T10:05:08;1002.84;;;6.44;30.94
46886;BME280;32622;48.202;11.326;2024-02-23T10:07:15;1002.82;;;6.76;30.90
46886;BME280;32622;48.202;11.326;2024-02-23T10:09:17;1002.77;;;6.90;30.94
46886;BME280;32622;48.202;11.326;2024-02-23T10:11:20;1002.82;;;6.68;30.97
46886;BME280;32622;48.202;11.326;2024-02-23T10:13:23;1002.69;;;7.31;30.92
46886;BME280;32622;48.202;11.326;2024-02-23T10:15:28;1002.71;;;7.19;30.96
46886;BME280;32622;48.202;11.326;2024-02-23T10:17:31;1002.80;;;6.57;30.74
46886;BME280;32622;48.202;11.326;2024-02-23T10:19:33;1002.62;;;7.27;30.28
46886;BME280;32622;48.202;11.326;2024-02-23T10:21:36;1002.59;;;7.33;30.26
46886;BME280;32622;48.202;11.326;2024-02-23T10:23:38;1002.53;;;7.48;29.55
46886;BME280;32622;48.202;11.326;2024-02-23T10:25:40;1002.63;;;7.28;29.80
46886;BME280;32622;48.202;11.326;2024-02-23T10:27:42;1002.50;;;8.02;29.82
46886;BME280;32622;48.202;11.326;2024-02-23T10:29:44;1002.66;;;7.12;29.92
46886;BME280;32622;48.202;11.326;2024-02-23T10:31:47;1002.58;;;7.09;30.32
46886;BME280;32622;48.202;11.326;2024-02-23T10:33:50;1002.49;;;7.61;29.94
46886;BME280;32622;48.202;11.326;2024-02-23T10:35:56;1002.56;;;7.27;29.76
46886;BME280;32622;48.202;11.326;2024-02-23T10:37:58;1002.60;;;7.33;29.41
46886;BME280;32622;48.202;11.326;2024-02-23T10:40:01;1002.53;;;7.71;29.17
46886;BME280;32622;48.202;11.326;2024-02-23T10:42:04;1002.69;;;7.11;29.56
46886;BME280;32622;48.202;11.326;2024-02-23T10:44:11;1002.66;;;7.32;29.64
46886;BME280;32622;48.202;11.326;2024-02-23T10:46:15;1002.71;;;7.26;29.59
46886;BME280;32622;48.202;11.326;2024-02-23T10:48:17;1002.65;;;7.59;31.30
46886;BME280;32622;48.202;11.326;2024-02-23T10:50:20;1002.56;;;7.91;30.57
46886;BME280;32622;48.202;11.326;2024-02-23T10:52:24;1002.58;;;7.46;30.04
46886;BME280;32622;48.202;11.326;2024-02-23T10:54:26;1002.62;;;7.10;29.59
46886;BME280;32622;48.202;11.326;2024-02-23T10:56:28;1002.56;;;7.36;29.73